sensor_id;sensor_type;location;lat;lon;timestamp;temperature;humidity
4183;DHT22;2105;52.300;9.182;2022-11-25T00:01:44;7.40;95.80
4183;DHT22;2105;52.300;9.182;2022-11-25T00:04:11;7.40;1.00
4183;DHT22;2105;52.300;9.182;2022-11-25T00:06:38;7.30;99.90
4183;DHT22;2105;52.300;9.182;2022-11-25T00:09:06;7.30;99.90
4183;DHT22;2105;52.300;9.182;2022-11-25T00:11:35;7.30;1.00
4183;DHT22;2105;52.300;9.182;2022-11-25T00:14:03;7.30;1.00
4183;DHT22;2105;52.300;9.182;2022-11-25T00:16:31;7.30;99.90
4183;DHT22;2105;52.300;9.182;2022-11-25T00:18:58;7.30;99.90
4183;DHT22;2105;52.300;9.182;2022-11-25T00:21:26;7.20;1.00
4183;DHT22;2105;52.300;9.182;2022-11-25T00:23:55;7.10;87.50
4183;DHT22;2105;52.300;9.182;2022-11-25T00:26:24;7.10;99.90
4183;DHT22;2105;52.300;9.182;2022-11-25T00:28:52;7.10;99.90
4183;DHT22;2105;52.300;9.182;2022-11-25T00:31:22;7.10;99.90
4183;DHT22;2105;52.300;9.182;2022-11-25T00:33:51;7.00;1.00
4183;DHT22;2105;52.300;9.182;2022-11-25T00:36:21;7.00;1.00
4183;DHT22;2105;52.300;9.182;2022-11-25T00:38:52;7.00;1.00
4183;DHT22;2105;52.300;9.182;2022-11-25T00:41:20;7.00;1.00
4183;DHT22;2105;52.300;9.182;2022-11-25T00:44:04;7.00;1.00
4183;DHT22;2105;52.300;9.182;2022-11-25T00:46:49;6.90;99.90
4183;DHT22;2105;52.300;9.182;2022-11-25T00:49:17;6.90;99.90
4183;DHT22;2105;52.300;9.182;2022-11-25T00:51:44;6.80;99.90
4183;DHT22;2105;52.300;9.182;2022-11-25T00:54:11;6.80;1.00
4183;DHT22;2105;52.300;9.182;2022-11-25T00:56:37;6.80;1.00
4183;DHT22;2105;52.300;9.182;2022-11-25T00:59:05;6.90;1.00
4183;DHT22;2105;52.300;9.182;2022-11-25T01:01:32;6.90;99.90
4183;DHT22;2105;52.300;9.182;2022-11-25T01:03:59;6.90;99.90
4183;DHT22;2105;52.300;9.182;2022-11-25T01:06:27;6.80;1.00
4183;DHT22;2105;52.300;9.182;2022-11-25T01:08:54;6.80;1.00
4183;DHT22;2105;52.300;9.182;2022-11-25T01:11:22;6.70;99.90
4183;DHT22;2105;52.300;9.182;2022-11-25T01:13:50;6.70;1.00
4183;DHT22;2105;52.300;9.182;2022-11-25T01:16:19;6.70;1.00
4183;DHT22;2105;52.300;9.182;2022-11-25T01:18:46;6.70;1.00
4183;DHT22;2105;52.300;9.182;2022-11-25T01:21:18;6.70;1.00
4183;DHT22;2105;52.300;9.182;2022-11-25T01:23:47;6.80;99.90
4183;DHT22;2105;52.300;9.182;2022-11-25T01:26:15;6.70;99.90
4183;DHT22;2105;52.300;9.182;2022-11-25T01:28:42;6.80;99.90
4183;DHT22;2105;52.300;9.182;2022-11-25T01:31:11;6.80;1.00
4183;DHT22;2105;52.300;9.182;2022-11-25T01:33:38;6.90;1.00
4183;DHT22;2105;52.300;9.182;2022-11-25T01:36:07;6.90;99.90
4183;DHT22;2105;52.300;9.182;2022-11-25T01:38:36;6.90;99.90
4183;DHT22;2105;52.300;9.182;2022-11-25T01:41:05;6.90;39.50
4183;DHT22;2105;52.300;9.182;2022-11-25T01:43:32;7.00;1.00
4183;DHT22;2105;52.300;9.182;2022-11-25T01:46:03;7.00;1.00
4183;DHT22;2105;52.300;9.182;2022-11-25T01:48:36;7.00;1.00
4183;DHT22;2105;52.300;9.182;2022-11-25T01:51:04;6.90;1.00
4183;DHT22;2105;52.300;9.182;2022-11-25T01:53:33;6.80;76.00
4183;DHT22;2105;52.300;9.182;2022-11-25T01:56:04;6.80;99.90
4183;DHT22;2105;52.300;9.182;2022-11-25T01:58:34;6.70;1.00
4183;DHT22;2105;52.300;9.182;2022-11-25T02:01:01;6.70;1.00
4183;DHT22;2105;52.300;9.182;2022-11-25T02:03:31;6.70;1.00
4183;DHT22;2105;52.300;9.182;2022-11-25T02:06:05;6.70;1.00
4183;DHT22;2105;52.300;9.182;2022-11-25T02:08:34;6.80;23.50
4183;DHT22;2105;52.300;9.182;2022-11-25T02:11:03;6.80;1.00
4183;DHT22;2105;52.300;9.182;2022-11-25T02:13:31;6.80;1.00
4183;DHT22;2105;52.300;9.182;2022-11-25T02:15:58;6.80;1.00
4183;DHT22;2105;52.300;9.182;2022-11-25T02:18:25;6.80;1.00
4183;DHT22;2105;52.300;9.182;2022-11-25T02:20:53;6.80;1.00
4183;DHT22;2105;52.300;9.182;2022-11-25T02:23:27;6.70;1.00
4183;DHT22;2105;52.300;9.182;2022-11-25T02:26:00;6.70;65.90
4183;DHT22;2105;52.300;9.182;2022-11-25T02:28:29;6.80;99.90
4183;DHT22;2105;52.300;9.182;2022-11-25T02:30:56;6.80;99.90
4183;DHT22;2105;52.300;9.182;2022-11-25T02:33:25;6.80;1.00
4183;DHT22;2105;52.300;9.182;2022-11-25T02:35:54;6.90;99.90
4183;DHT22;2105;52.300;9.182;2022-11-25T02:38:24;6.90;99.90
4183;DHT22;2105;52.300;9.182;2022-11-25T02:40:55;7.00;1.00
4183;DHT22;2105;52.300;9.182;2022-11-25T02:43:24;7.00;1.00
4183;DHT22;2105;52.300;9.182;2022-11-25T02:45:56;7.00;1.00
4183;DHT22;2105;52.300;9.182;2022-11-25T02:48:25;6.90;95.20
4183;DHT22;2105;52.300;9.182;2022-11-25T02:50:52;6.90;99.90
4183;DHT22;2105;52.300;9.182;2022-11-25T02:53:19;6.90;99.90
4183;DHT22;2105;52.300;9.182;2022-11-25T02:55:46;6.80;1.00
4183;DHT22;2105;52.300;9.182;2022-11-25T02:58:13;6.90;99.90
4183;DHT22;2105;52.300;9.182;2022-11-25T03:00:43;6.90;99.90
4183;DHT22;2105;52.300;9.182;2022-11-25T03:03:11;6.90;99.90
4183;DHT22;2105;52.300;9.182;2022-11-25T03:05:38;6.90;99.90
4183;DHT22;2105;52.300;9.182;2022-11-25T03:08:05;6.90;99.90
4183;DHT22;2105;52.300;9.182;2022-11-25T03:10:32;6.90;99.90
4183;DHT22;2105;52.300;9.182;2022-11-25T03:12:59;6.90;16.30
4183;DHT22;2105;52.300;9.182;2022-11-25T03:15:26;6.90;41.30
4183;DHT22;2105;52.300;9.182;2022-11-25T03:17:54;6.90;96.30
4183;DHT22;2105;52.300;9.182;2022-11-25T03:20:20;6.90;99.90
4183;DHT22;2105;52.300;9.182;2022-11-25T03:22:47;6.80;1.00
4183;DHT22;2105;52.300;9.182;2022-11-25T03:25:15;6.80;1.00
4183;DHT22;2105;52.300;9.182;2022-11-25T03:27:42;6.80;1.00
4183;DHT22;2105;52.300;9.182;2022-11-25T03:30:11;6.80;1.00
4183;DHT22;2105;52.300;9.182;2022-11-25T03:32:38;6.80;1.00
4183;DHT22;2105;52.300;9.182;2022-11-25T03:35:07;6.80;1.00
4183;DHT22;2105;52.300;9.182;2022-11-25T03:37:34;6.80;1.00
4183;DHT22;2105;52.300;9.182;2022-11-25T03:40:01;6.90;1.00
4183;DHT22;2105;52.300;9.182;2022-11-25T03:42:29;6.90;99.90
4183;DHT22;2105;52.300;9.182;2022-11-25T03:44:56;6.90;27.90
4183;DHT22;2105;52.300;9.182;2022-11-25T03:47:23;7.00;1.00
4183;DHT22;2105;52.300;9.182;2022-11-25T03:49:50;7.00;99.90
4183;DHT22;2105;52.300;9.182;2022-11-25T03:52:18;7.10;99.90
4183;DHT22;2105;52.300;9.182;2022-11-25T03:54:45;7.20;99.90
4183;DHT22;2105;52.300;9.182;2022-11-25T03:57:11;7.20;46.70
4183;DHT22;2105;52.300;9.182;2022-11-25T03:59:38;7.20;1.00
4183;DHT22;2105;52.300;9.182;2022-11-25T04:02:05;7.30;1.00
4183;DHT22;2105;52.300;9.182;2022-11-25T04:04:32;7.30;1.00
4183;DHT22;2105;52.300;9.182;2022-11-25T04:06:59;7.30;1.00
4183;DHT22;2105;52.300;9.182;2022-11-25T04:09:27;7.30;99.90
4183;DHT22;2105;52.300;9.182;2022-11-25T04:11:54;7.30;99.90
4183;DHT22;2105;52.300;9.182;2022-11-25T04:14:38;7.30;1.00
4183;DHT22;2105;52.300;9.182;2022-11-25T04:17:05;7.30;1.00
4183;DHT22;2105;52.300;9.182;2022-11-25T04:19:31;7.40;1.00
4183;DHT22;2105;52.300;9.182;2022-11-25T04:21:58;7.40;1.00
4183;DHT22;2105;52.300;9.182;2022-11-25T04:24:27;7.40;1.00
4183;DHT22;2105;52.300;9.182;2022-11-25T04:26:54;7.50;99.90
4183;DHT22;2105;52.300;9.182;2022-11-25T04:29:20;7.50;99.90
4183;DHT22;2105;52.300;9.182;2022-11-25T04:31:47;7.40;1.00
4183;DHT22;2105;52.300;9.182;2022-11-25T04:34:14;7.40;1.00
4183;DHT22;2105;52.300;9.182;2022-11-25T04:36:41;7.40;33.10
4183;DHT22;2105;52.300;9.182;2022-11-25T04:39:07;7.40;99.90
4183;DHT22;2105;52.300;9.182;2022-11-25T04:41:35;7.40;99.90
4183;DHT22;2105;52.300;9.182;2022-11-25T04:44:02;7.30;1.00
4183;DHT22;2105;52.300;9.182;2022-11-25T04:46:33;7.40;1.00
4183;DHT22;2105;52.300;9.182;2022-11-25T04:49:01;7.40;1.00
4183;DHT22;2105;52.300;9.182;2022-11-25T04:51:28;7.40;1.00
4183;DHT22;2105;52.300;9.182;2022-11-25T04:53:56;7.50;1.00
4183;DHT22;2105;52.300;9.182;2022-11-25T04:56:23;7.50;1.00
4183;DHT22;2105;52.300;9.182;2022-11-25T04:58:51;7.50;1.00
4183;DHT22;2105;52.300;9.182;2022-11-25T05:01:35;7.50;1.00
4183;DHT22;2105;52.300;9.182;2022-11-25T05:04:02;7.50;1.00
4183;DHT22;2105;52.300;9.182;2022-11-25T05:06:29;7.40;1.00
4183;DHT22;2105;52.300;9.182;2022-11-25T05:08:56;7.50;63.70
4183;DHT22;2105;52.300;9.182;2022-11-25T05:11:23;7.50;50.80
4183;DHT22;2105;52.300;9.182;2022-11-25T05:13:51;7.60;1.00
4183;DHT22;2105;52.300;9.182;2022-11-25T05:16:18;7.60;1.00
4183;DHT22;2105;52.300;9.182;2022-11-25T05:18:44;7.70;1.00
4183;DHT22;2105;52.300;9.182;2022-11-25T05:21:11;7.90;99.90
4183;DHT22;2105;52.300;9.182;2022-11-25T05:23:38;8.00;1.00
4183;DHT22;2105;52.300;9.182;2022-11-25T05:26:04;8.00;1.00
4183;DHT22;2105;52.300;9.182;2022-11-25T05:28:31;8.10;99.90
4183;DHT22;2105;52.300;9.182;2022-11-25T05:30:59;8.20;1.00
4183;DHT22;2105;52.300;9.182;2022-11-25T05:33:26;8.10;1.00
4183;DHT22;2105;52.300;9.182;2022-11-25T05:35:54;8.10;20.70
4183;DHT22;2105;52.300;9.182;2022-11-25T05:38:21;8.20;43.70
4183;DHT22;2105;52.300;9.182;2022-11-25T05:40:48;8.20;1.00
4183;DHT22;2105;52.300;9.182;2022-11-25T05:43:15;8.20;1.00
4183;DHT22;2105;52.300;9.182;2022-11-25T05:45:41;8.10;99.90
4183;DHT22;2105;52.300;9.182;2022-11-25T05:48:10;8.00;1.00
4183;DHT22;2105;52.300;9.182;2022-11-25T05:50:37;8.00;99.90
4183;DHT22;2105;52.300;9.182;2022-11-25T05:53:04;8.10;99.90
4183;DHT22;2105;52.300;9.182;2022-11-25T05:55:31;8.40;40.10
4183;DHT22;2105;52.300;9.182;2022-11-25T05:57:58;8.60;1.00
4183;DHT22;2105;52.300;9.182;2022-11-25T06:00:25;8.40;1.00
4183;DHT22;2105;52.300;9.182;2022-11-25T06:02:52;8.20;1.00
4183;DHT22;2105;52.300;9.182;2022-11-25T06:05:20;8.00;1.00
4183;DHT22;2105;52.300;9.182;2022-11-25T06:07:47;8.10;1.00
4183;DHT22;2105;52.300;9.182;2022-11-25T06:10:14;8.00;1.00
4183;DHT22;2105;52.300;9.182;2022-11-25T06:12:42;8.00;65.00
4183;DHT22;2105;52.300;9.182;2022-11-25T06:15:10;8.10;1.00
4183;DHT22;2105;52.300;9.182;2022-11-25T06:17:37;8.10;1.00
4183;DHT22;2105;52.300;9.182;2022-11-25T06:20:05;8.10;59.30
4183;DHT22;2105;52.300;9.182;2022-11-25T06:22:33;8.20;1.00
4183;DHT22;2105;52.300;9.182;2022-11-25T06:25:00;8.40;1.00
4183;DHT22;2105;52.300;9.182;2022-11-25T06:27:26;8.30;99.90
4183;DHT22;2105;52.300;9.182;2022-11-25T06:29:53;8.10;99.90
4183;DHT22;2105;52.300;9.182;2022-11-25T06:32:20;8.10;99.90
4183;DHT22;2105;52.300;9.182;2022-11-25T06:34:47;7.90;99.90
4183;DHT22;2105;52.300;9.182;2022-11-25T06:37:13;7.70;1.00
4183;DHT22;2105;52.300;9.182;2022-11-25T06:39:42;7.80;1.00
4183;DHT22;2105;52.300;9.182;2022-11-25T06:42:09;7.70;1.00
4183;DHT22;2105;52.300;9.182;2022-11-25T06:44:36;7.50;1.00
4183;DHT22;2105;52.300;9.182;2022-11-25T06:47:03;7.40;26.40
4183;DHT22;2105;52.300;9.182;2022-11-25T06:49:30;7.40;99.90
4183;DHT22;2105;52.300;9.182;2022-11-25T06:51:56;7.40;99.90
4183;DHT22;2105;52.300;9.182;2022-11-25T06:54:23;7.40;99.90
4183;DHT22;2105;52.300;9.182;2022-11-25T06:56:51;7.40;99.90
4183;DHT22;2105;52.300;9.182;2022-11-25T06:59:18;7.50;99.90
4183;DHT22;2105;52.300;9.182;2022-11-25T07:01:46;7.50;99.90
4183;DHT22;2105;52.300;9.182;2022-11-25T07:04:13;7.50;99.90
4183;DHT22;2105;52.300;9.182;2022-11-25T07:06:39;7.60;99.90
4183;DHT22;2105;52.300;9.182;2022-11-25T07:09:06;7.60;91.50
4183;DHT22;2105;52.300;9.182;2022-11-25T07:11:35;7.60;1.00
4183;DHT22;2105;52.300;9.182;2022-11-25T07:14:05;7.60;1.00
4183;DHT22;2105;52.300;9.182;2022-11-25T07:16:33;7.50;1.00
4183;DHT22;2105;52.300;9.182;2022-11-25T07:19:00;7.50;1.00
4183;DHT22;2105;52.300;9.182;2022-11-25T07:21:28;7.50;1.00
4183;DHT22;2105;52.300;9.182;2022-11-25T07:23:56;7.50;1.00
4183;DHT22;2105;52.300;9.182;2022-11-25T07:26:25;7.50;1.00
4183;DHT22;2105;52.300;9.182;2022-11-25T07:28:53;7.70;1.00
4183;DHT22;2105;52.300;9.182;2022-11-25T07:31:23;7.70;1.00
4183;DHT22;2105;52.300;9.182;2022-11-25T07:33:51;7.60;1.00
4183;DHT22;2105;52.300;9.182;2022-11-25T07:36:18;7.60;1.00
4183;DHT22;2105;52.300;9.182;2022-11-25T07:38:45;7.60;1.00
4183;DHT22;2105;52.300;9.182;2022-11-25T07:41:14;7.60;1.00
4183;DHT22;2105;52.300;9.182;2022-11-25T07:43:43;7.60;1.00
4183;DHT22;2105;52.300;9.182;2022-11-25T07:46:13;7.70;1.00
4183;DHT22;2105;52.300;9.182;2022-11-25T07:48:42;7.70;1.00
4183;DHT22;2105;52.300;9.182;2022-11-25T07:51:16;7.70;1.00
4183;DHT22;2105;52.300;9.182;2022-11-25T07:53:44;7.70;1.00
4183;DHT22;2105;52.300;9.182;2022-11-25T07:56:11;7.70;1.00
4183;DHT22;2105;52.300;9.182;2022-11-25T07:58:38;7.70;1.00
4183;DHT22;2105;52.300;9.182;2022-11-25T08:01:07;7.80;1.00
4183;DHT22;2105;52.300;9.182;2022-11-25T08:03:35;7.80;1.00
4183;DHT22;2105;52.300;9.182;2022-11-25T08:06:05;7.80;1.00
4183;DHT22;2105;52.300;9.182;2022-11-25T08:08:33;7.80;1.00
4183;DHT22;2105;52.300;9.182;2022-11-25T08:11:00;7.90;99.90
4183;DHT22;2105;52.300;9.182;2022-11-25T08:13:31;7.90;99.90
4183;DHT22;2105;52.300;9.182;2022-11-25T08:15:58;7.90;99.90
4183;DHT22;2105;52.300;9.182;2022-11-25T08:18:25;7.90;99.90
4183;DHT22;2105;52.300;9.182;2022-11-25T08:20:51;7.90;99.90
4183;DHT22;2105;52.300;9.182;2022-11-25T08:23:19;8.00;99.90
4183;DHT22;2105;52.300;9.182;2022-11-25T08:25:46;8.00;99.90
4183;DHT22;2105;52.300;9.182;2022-11-25T08:28:13;7.90;99.90
4183;DHT22;2105;52.300;9.182;2022-11-25T08:30:39;7.90;99.90
4183;DHT22;2105;52.300;9.182;2022-11-25T08:33:06;7.90;99.90
4183;DHT22;2105;52.300;9.182;2022-11-25T08:35:33;7.90;99.90
4183;DHT22;2105;52.300;9.182;2022-11-25T08:38:03;7.90;99.90
4183;DHT22;2105;52.300;9.182;2022-11-25T08:40:31;7.90;1.00
4183;DHT22;2105;52.300;9.182;2022-11-25T08:42:58;7.90;1.00
4183;DHT22;2105;52.300;9.182;2022-11-25T08:45:26;7.90;1.00
4183;DHT22;2105;52.300;9.182;2022-11-25T08:47:52;8.00;1.00
4183;DHT22;2105;52.300;9.182;2022-11-25T08:50:20;8.00;1.00
4183;DHT22;2105;52.300;9.182;2022-11-25T08:52:48;8.10;1.00
4183;DHT22;2105;52.300;9.182;2022-11-25T08:55:15;8.30;1.00
4183;DHT22;2105;52.300;9.182;2022-11-25T08:57:43;8.30;99.90
4183;DHT22;2105;52.300;9.182;2022-11-25T09:00:11;8.40;99.90
4183;DHT22;2105;52.300;9.182;2022-11-25T09:02:38;8.40;1.00
4183;DHT22;2105;52.300;9.182;2022-11-25T09:05:05;8.40;1.00
4183;DHT22;2105;52.300;9.182;2022-11-25T09:07:32;8.40;1.00
4183;DHT22;2105;52.300;9.182;2022-11-25T09:09:59;8.40;1.00
4183;DHT22;2105;52.300;9.182;2022-11-25T09:12:25;8.40;17.90
4183;DHT22;2105;52.300;9.182;2022-11-25T09:14:53;8.40;96.60
4183;DHT22;2105;52.300;9.182;2022-11-25T09:17:20;8.50;99.90
4183;DHT22;2105;52.300;9.182;2022-11-25T09:19:47;8.60;99.90
4183;DHT22;2105;52.300;9.182;2022-11-25T09:22:14;8.70;1.00
4183;DHT22;2105;52.300;9.182;2022-11-25T09:24:40;8.80;1.00
4183;DHT22;2105;52.300;9.182;2022-11-25T09:27:08;8.80;1.00
4183;DHT22;2105;52.300;9.182;2022-11-25T09:29:34;8.80;1.00
4183;DHT22;2105;52.300;9.182;2022-11-25T09:32:03;8.80;99.90
4183;DHT22;2105;52.300;9.182;2022-11-25T09:34:30;8.80;99.90
4183;DHT22;2105;52.300;9.182;2022-11-25T09:36:56;8.80;1.00
4183;DHT22;2105;52.300;9.182;2022-11-25T09:39:23;8.80;1.00
4183;DHT22;2105;52.300;9.182;2022-11-25T09:42:04;8.80;1.00
4183;DHT22;2105;52.300;9.182;2022-11-25T09:45:00;8.90;1.00
4183;DHT22;2105;52.300;9.182;2022-11-25T09:47:53;8.90;1.00
4183;DHT22;2105;52.300;9.182;2022-11-25T09:50:33;8.80;1.00
4183;DHT22;2105;52.300;9.182;2022-11-25T09:53:12;8.80;17.20
4183;DHT22;2105;52.300;9.182;2022-11-25T09:55:46;8.80;99.90
4183;DHT22;2105;52.300;9.182;2022-11-25T09:58:21;8.80;99.90
4183;DHT22;2105;52.300;9.182;2022-11-25T10:00:50;8.80;1.00
4183;DHT22;2105;52.300;9.182;2022-11-25T10:03:26;8.70;1.00
4183;DHT22;2105;52.300;9.182;2022-11-25T10:05:58;8.70;1.00
4183;DHT22;2105;52.300;9.182;2022-11-25T10:08:30;8.70;1.00
4183;DHT22;2105;52.300;9.182;2022-11-25T10:11:01;8.70;1.00
4183;DHT22;2105;52.300;9.182;2022-11-25T10:13:36;8.80;1.00
4183;DHT22;2105;52.300;9.182;2022-11-25T10:16:16;8.80;1.00
4183;DHT22;2105;52.300;9.182;2022-11-25T10:18:54;8.80;1.00
4183;DHT22;2105;52.300;9.182;2022-11-25T10:21:21;8.80;1.00
4183;DHT22;2105;52.300;9.182;2022-11-25T10:23:48;8.80;1.00
4183;DHT22;2105;52.300;9.182;2022-11-25T10:26:16;8.90;1.00
4183;DHT22;2105;52.300;9.182;2022-11-25T10:28:50;8.90;1.00
4183;DHT22;2105;52.300;9.182;2022-11-25T10:31:24;9.00;1.00
4183;DHT22;2105;52.300;9.182;2022-11-25T10:33:56;9.10;1.00
4183;DHT22;2105;52.300;9.182;2022-11-25T10:36:26;9.10;1.00
4183;DHT22;2105;52.300;9.182;2022-11-25T10:38:57;9.20;1.00
4183;DHT22;2105;52.300;9.182;2022-11-25T10:41:27;9.20;1.00
4183;DHT22;2105;52.300;9.182;2022-11-25T10:43:56;9.20;1.00
4183;DHT22;2105;52.300;9.182;2022-11-25T10:46:29;9.30;1.00
4183;DHT22;2105;52.300;9.182;2022-11-25T10:49:03;9.40;1.00
4183;DHT22;2105;52.300;9.182;2022-11-25T10:51:36;9.40;99.90
4183;DHT22;2105;52.300;9.182;2022-11-25T10:54:12;9.40;99.90
4183;DHT22;2105;52.300;9.182;2022-11-25T10:56:47;9.30;99.90
4183;DHT22;2105;52.300;9.182;2022-11-25T10:59:21;9.30;99.90
4183;DHT22;2105;52.300;9.182;2022-11-25T11:01:50;9.30;99.90
4183;DHT22;2105;52.300;9.182;2022-11-25T11:04:19;9.20;99.90
4183;DHT22;2105;52.300;9.182;2022-11-25T11:06:48;9.20;99.90
4183;DHT22;2105;52.300;9.182;2022-11-25T11:09:33;9.20;99.90
4183;DHT22;2105;52.300;9.182;2022-11-25T11:12:12;9.30;99.90
4183;DHT22;2105;52.300;9.182;2022-11-25T11:14:40;9.30;99.90
4183;DHT22;2105;52.300;9.182;2022-11-25T11:17:28;9.20;99.90
4183;DHT22;2105;52.300;9.182;2022-11-25T11:20:21;9.30;99.90
4183;DHT22;2105;52.300;9.182;2022-11-25T11:22:53;9.40;99.90
4183;DHT22;2105;52.300;9.182;2022-11-25T11:25:26;9.50;99.90
4183;DHT22;2105;52.300;9.182;2022-11-25T11:27:53;9.60;99.90
4183;DHT22;2105;52.300;9.182;2022-11-25T11:30:22;9.60;99.90
4183;DHT22;2105;52.300;9.182;2022-11-25T11:32:56;9.70;99.90
4183;DHT22;2105;52.300;9.182;2022-11-25T11:35:40;9.70;74.10
4183;DHT22;2105;52.300;9.182;2022-11-25T11:38:19;9.80;1.00
4183;DHT22;2105;52.300;9.182;2022-11-25T11:40:50;9.80;1.00
4183;DHT22;2105;52.300;9.182;2022-11-25T11:43:31;9.80;1.00
4183;DHT22;2105;52.300;9.182;2022-11-25T11:46:16;9.90;1.00
4183;DHT22;2105;52.300;9.182;2022-11-25T11:48:50;9.90;99.90
4183;DHT22;2105;52.300;9.182;2022-11-25T11:51:26;9.80;99.90
4183;DHT22;2105;52.300;9.182;2022-11-25T11:54:01;9.80;99.90
4183;DHT22;2105;52.300;9.182;2022-11-25T11:56:36;9.90;1.00
4183;DHT22;2105;52.300;9.182;2022-11-25T12:02:12;9.90;1.00
4183;DHT22;2105;52.300;9.182;2022-11-25T12:04:44;9.90;1.00
4183;DHT22;2105;52.300;9.182;2022-11-25T12:07:19;9.90;1.00
4183;DHT22;2105;52.300;9.182;2022-11-25T12:09:51;9.90;1.00
4183;DHT22;2105;52.300;9.182;2022-11-25T12:12:23;9.90;1.00
4183;DHT22;2105;52.300;9.182;2022-11-25T12:15:01;9.90;1.00
4183;DHT22;2105;52.300;9.182;2022-11-25T12:17:35;10.00;1.00
4183;DHT22;2105;52.300;9.182;2022-11-25T12:20:14;10.00;99.90
4183;DHT22;2105;52.300;9.182;2022-11-25T12:22:47;10.00;99.90
4183;DHT22;2105;52.300;9.182;2022-11-25T12:25:19;10.00;99.90
4183;DHT22;2105;52.300;9.182;2022-11-25T12:27:52;10.00;99.90
4183;DHT22;2105;52.300;9.182;2022-11-25T12:30:21;10.00;99.90
4183;DHT22;2105;52.300;9.182;2022-11-25T12:32:57;10.00;99.90
4183;DHT22;2105;52.300;9.182;2022-11-25T12:35:40;10.00;57.40
4183;DHT22;2105;52.300;9.182;2022-11-25T12:38:25;10.10;53.70
4183;DHT22;2105;52.300;9.182;2022-11-25T12:41:00;10.10;1.00
4183;DHT22;2105;52.300;9.182;2022-11-25T12:43:35;10.00;1.00
4183;DHT22;2105;52.300;9.182;2022-11-25T12:46:16;10.10;1.00
4183;DHT22;2105;52.300;9.182;2022-11-25T12:48:44;10.10;1.00
4183;DHT22;2105;52.300;9.182;2022-11-25T12:51:22;10.00;1.00
4183;DHT22;2105;52.300;9.182;2022-11-25T12:54:02;9.90;1.00
4183;DHT22;2105;52.300;9.182;2022-11-25T12:56:45;9.90;99.90
4183;DHT22;2105;52.300;9.182;2022-11-25T12:59:29;10.00;99.90
4183;DHT22;2105;52.300;9.182;2022-11-25T13:02:20;10.10;99.90
4183;DHT22;2105;52.300;9.182;2022-11-25T13:08:00;10.40;99.90
4183;DHT22;2105;52.300;9.182;2022-11-25T13:10:51;10.40;1.00
4183;DHT22;2105;52.300;9.182;2022-11-25T13:13:32;10.40;1.00
4183;DHT22;2105;52.300;9.182;2022-11-25T13:16:02;10.30;83.50
4183;DHT22;2105;52.300;9.182;2022-11-25T13:18:32;10.40;3.90
4183;DHT22;2105;52.300;9.182;2022-11-25T13:21:05;10.60;1.00
4183;DHT22;2105;52.300;9.182;2022-11-25T13:23:48;10.60;99.90
4183;DHT22;2105;52.300;9.182;2022-11-25T13:26:45;10.70;1.00
4183;DHT22;2105;52.300;9.182;2022-11-25T13:32:28;10.90;1.00
4183;DHT22;2105;52.300;9.182;2022-11-25T13:41:32;10.80;99.90
4183;DHT22;2105;52.300;9.182;2022-11-25T13:44:04;10.80;1.00
4183;DHT22;2105;52.300;9.182;2022-11-25T13:46:37;10.70;1.00
4183;DHT22;2105;52.300;9.182;2022-11-25T13:49:18;10.60;99.90
4183;DHT22;2105;52.300;9.182;2022-11-25T13:51:48;10.40;1.00
4183;DHT22;2105;52.300;9.182;2022-11-25T13:54:18;10.30;1.00
4183;DHT22;2105;52.300;9.182;2022-11-25T13:56:58;10.40;1.00
4183;DHT22;2105;52.300;9.182;2022-11-25T13:59:47;10.40;1.00
4183;DHT22;2105;52.300;9.182;2022-11-25T14:02:35;10.50;99.90
4183;DHT22;2105;52.300;9.182;2022-11-25T14:05:14;10.70;1.00
4183;DHT22;2105;52.300;9.182;2022-11-25T14:07:48;10.60;1.00
4183;DHT22;2105;52.300;9.182;2022-11-25T14:10:25;10.60;99.90
4183;DHT22;2105;52.300;9.182;2022-11-25T14:13:05;10.50;99.90
4183;DHT22;2105;52.300;9.182;2022-11-25T14:16:10;10.50;1.00
4183;DHT22;2105;52.300;9.182;2022-11-25T14:18:57;10.50;1.00
4183;DHT22;2105;52.300;9.182;2022-11-25T14:21:46;10.40;1.00
4183;DHT22;2105;52.300;9.182;2022-11-25T14:24:26;10.40;1.00
4183;DHT22;2105;52.300;9.182;2022-11-25T14:26:55;10.40;1.00
4183;DHT22;2105;52.300;9.182;2022-11-25T14:29:28;10.30;1.00
4183;DHT22;2105;52.300;9.182;2022-11-25T14:31:59;10.20;99.90
4183;DHT22;2105;52.300;9.182;2022-11-25T14:34:30;10.10;1.00
4183;DHT22;2105;52.300;9.182;2022-11-25T14:37:05;10.10;1.00
4183;DHT22;2105;52.300;9.182;2022-11-25T14:39:37;9.90;99.90
4183;DHT22;2105;52.300;9.182;2022-11-25T14:42:08;9.80;1.00
4183;DHT22;2105;52.300;9.182;2022-11-25T14:44:39;9.80;99.90
4183;DHT22;2105;52.300;9.182;2022-11-25T14:47:11;9.80;99.90
4183;DHT22;2105;52.300;9.182;2022-11-25T14:49:46;9.70;1.00
4183;DHT22;2105;52.300;9.182;2022-11-25T14:52:17;9.80;1.00
4183;DHT22;2105;52.300;9.182;2022-11-25T14:54:45;9.70;1.00
4183;DHT22;2105;52.300;9.182;2022-11-25T14:57:12;9.70;1.00
4183;DHT22;2105;52.300;9.182;2022-11-25T14:59:39;9.70;1.00
4183;DHT22;2105;52.300;9.182;2022-11-25T15:02:24;9.60;99.90
4183;DHT22;2105;52.300;9.182;2022-11-25T15:04:51;9.60;99.90
4183;DHT22;2105;52.300;9.182;2022-11-25T15:07:20;9.70;99.90
4183;DHT22;2105;52.300;9.182;2022-11-25T15:09:48;9.60;99.90
4183;DHT22;2105;52.300;9.182;2022-11-25T15:12:16;9.60;1.00
4183;DHT22;2105;52.300;9.182;2022-11-25T15:14:48;9.60;1.00
4183;DHT22;2105;52.300;9.182;2022-11-25T15:17:25;9.50;1.00
4183;DHT22;2105;52.300;9.182;2022-11-25T15:19:54;9.50;1.00
4183;DHT22;2105;52.300;9.182;2022-11-25T15:22:21;9.50;1.00
4183;DHT22;2105;52.300;9.182;2022-11-25T15:24:49;9.50;1.00
4183;DHT22;2105;52.300;9.182;2022-11-25T15:27:18;9.50;99.90
4183;DHT22;2105;52.300;9.182;2022-11-25T15:29:46;9.50;99.90
4183;DHT22;2105;52.300;9.182;2022-11-25T15:32:15;9.40;99.90
4183;DHT22;2105;52.300;9.182;2022-11-25T15:34:45;9.30;99.90
4183;DHT22;2105;52.300;9.182;2022-11-25T15:37:12;9.40;99.90
4183;DHT22;2105;52.300;9.182;2022-11-25T15:39:39;9.30;99.90
4183;DHT22;2105;52.300;9.182;2022-11-25T15:42:14;9.30;99.90
4183;DHT22;2105;52.300;9.182;2022-11-25T15:44:46;9.30;99.90
4183;DHT22;2105;52.300;9.182;2022-11-25T15:47:18;9.40;99.90
4183;DHT22;2105;52.300;9.182;2022-11-25T15:49:53;9.30;99.90
4183;DHT22;2105;52.300;9.182;2022-11-25T15:52:24;9.30;99.90
4183;DHT22;2105;52.300;9.182;2022-11-25T15:54:56;9.40;99.90
4183;DHT22;2105;52.300;9.182;2022-11-25T15:57:28;9.40;99.90
4183;DHT22;2105;52.300;9.182;2022-11-25T16:00:13;9.40;99.90
4183;DHT22;2105;52.300;9.182;2022-11-25T16:02:50;9.50;99.90
4183;DHT22;2105;52.300;9.182;2022-11-25T16:05:24;9.50;99.90
4183;DHT22;2105;52.300;9.182;2022-11-25T16:08:00;9.60;99.90
4183;DHT22;2105;52.300;9.182;2022-11-25T16:10:29;9.70;99.90
4183;DHT22;2105;52.300;9.182;2022-11-25T16:13:20;9.70;36.10
4183;DHT22;2105;52.300;9.182;2022-11-25T16:15:55;9.70;1.00
4183;DHT22;2105;52.300;9.182;2022-11-25T16:18:26;9.80;1.00
4183;DHT22;2105;52.300;9.182;2022-11-25T16:21:01;9.80;1.00
4183;DHT22;2105;52.300;9.182;2022-11-25T16:23:29;9.80;99.90
4183;DHT22;2105;52.300;9.182;2022-11-25T16:26:02;9.80;99.90
4183;DHT22;2105;52.300;9.182;2022-11-25T16:28:30;9.80;99.90
4183;DHT22;2105;52.300;9.182;2022-11-25T16:30:57;9.90;99.90
4183;DHT22;2105;52.300;9.182;2022-11-25T16:33:26;9.80;99.90
4183;DHT22;2105;52.300;9.182;2022-11-25T16:35:53;9.80;99.90
4183;DHT22;2105;52.300;9.182;2022-11-25T16:38:21;9.80;99.90
4183;DHT22;2105;52.300;9.182;2022-11-25T16:40:50;9.80;99.90
4183;DHT22;2105;52.300;9.182;2022-11-25T16:43:21;9.80;99.90
4183;DHT22;2105;52.300;9.182;2022-11-25T16:45:50;9.80;99.90
4183;DHT22;2105;52.300;9.182;2022-11-25T16:48:19;9.90;99.90
4183;DHT22;2105;52.300;9.182;2022-11-25T16:50:47;9.80;99.90
4183;DHT22;2105;52.300;9.182;2022-11-25T16:53:14;9.80;99.90
4183;DHT22;2105;52.300;9.182;2022-11-25T16:55:44;9.80;99.90
4183;DHT22;2105;52.300;9.182;2022-11-25T16:58:16;9.80;99.90
4183;DHT22;2105;52.300;9.182;2022-11-25T17:00:48;9.80;99.90
4183;DHT22;2105;52.300;9.182;2022-11-25T17:03:15;9.80;99.90